sensor_id;sensor_type;location;lat;lon;timestamp;temperature;humidity
13488;DHT22;6816;48.506;9.050;2023-02-10T00:00:56;-1.00;95.50
13488;DHT22;6816;48.506;9.050;2023-02-10T00:03:56;-1.00;95.40
13488;DHT22;6816;48.506;9.050;2023-02-10T00:06:57;-1.00;95.30
13488;DHT22;6816;48.506;9.050;2023-02-10T00:09:58;-1.00;95.30
13488;DHT22;6816;48.506;9.050;2023-02-10T00:12:58;-1.10;95.20
13488;DHT22;6816;48.506;9.050;2023-02-10T00:16:00;-1.10;95.10
13488;DHT22;6816;48.506;9.050;2023-02-10T00:19:01;-1.30;94.90
13488;DHT22;6816;48.506;9.050;2023-02-10T00:22:02;-1.00;94.80
13488;DHT22;6816;48.506;9.050;2023-02-10T00:25:03;-1.30;94.60
13488;DHT22;6816;48.506;9.050;2023-02-10T00:28:04;-1.20;94.70
13488;DHT22;6816;48.506;9.050;2023-02-10T00:31:10;-1.30;94.60
13488;DHT22;6816;48.506;9.050;2023-02-10T00:34:14;-1.30;94.50
13488;DHT22;6816;48.506;9.050;2023-02-10T00:37:15;-1.40;94.50
13488;DHT22;6816;48.506;9.050;2023-02-10T00:40:18;-1.40;94.60
13488;DHT22;6816;48.506;9.050;2023-02-10T00:43:19;-1.40;94.50
13488;DHT22;6816;48.506;9.050;2023-02-10T00:46:22;-1.40;94.50
13488;DHT22;6816;48.506;9.050;2023-02-10T00:49:23;-1.50;94.50
13488;DHT22;6816;48.506;9.050;2023-02-10T00:52:24;-1.50;94.60
13488;DHT22;6816;48.506;9.050;2023-02-10T00:55:24;-1.50;94.60
13488;DHT22;6816;48.506;9.050;2023-02-10T00:58:25;-1.60;94.50
13488;DHT22;6816;48.506;9.050;2023-02-10T01:01:26;-1.60;94.60
13488;DHT22;6816;48.506;9.050;2023-02-10T01:04:27;-1.60;94.50
13488;DHT22;6816;48.506;9.050;2023-02-10T01:07:27;-1.60;94.60
13488;DHT22;6816;48.506;9.050;2023-02-10T01:10:31;-1.70;94.60
13488;DHT22;6816;48.506;9.050;2023-02-10T01:13:36;-1.70;94.60
13488;DHT22;6816;48.506;9.050;2023-02-10T01:16:38;-1.70;94.60
13488;DHT22;6816;48.506;9.050;2023-02-10T01:19:39;-1.70;94.60
13488;DHT22;6816;48.506;9.050;2023-02-10T01:22:39;-1.70;94.60
13488;DHT22;6816;48.506;9.050;2023-02-10T01:25:40;-1.80;94.50
13488;DHT22;6816;48.506;9.050;2023-02-10T01:28:42;-1.80;94.40
13488;DHT22;6816;48.506;9.050;2023-02-10T01:31:46;-1.80;94.40
13488;DHT22;6816;48.506;9.050;2023-02-10T01:34:46;-1.70;94.60
13488;DHT22;6816;48.506;9.050;2023-02-10T01:37:47;-1.80;94.90
13488;DHT22;6816;48.506;9.050;2023-02-10T01:40:48;-1.80;94.80
13488;DHT22;6816;48.506;9.050;2023-02-10T01:47:19;-1.80;94.30
13488;DHT22;6816;48.506;9.050;2023-02-10T01:50:31;-1.90;94.40
13488;DHT22;6816;48.506;9.050;2023-02-10T01:53:35;-1.80;94.40
13488;DHT22;6816;48.506;9.050;2023-02-10T01:56:36;-2.00;94.40
13488;DHT22;6816;48.506;9.050;2023-02-10T01:59:38;-1.90;94.30
13488;DHT22;6816;48.506;9.050;2023-02-10T02:02:42;-2.00;94.10
13488;DHT22;6816;48.506;9.050;2023-02-10T02:05:44;-2.10;94.00
13488;DHT22;6816;48.506;9.050;2023-02-10T02:08:45;-2.10;93.90
13488;DHT22;6816;48.506;9.050;2023-02-10T02:11:52;-2.10;93.90
13488;DHT22;6816;48.506;9.050;2023-02-10T02:35:10;-2.50;93.70
13488;DHT22;6816;48.506;9.050;2023-02-10T02:38:12;-2.60;93.60
13488;DHT22;6816;48.506;9.050;2023-02-10T02:41:23;-2.60;93.60
13488;DHT22;6816;48.506;9.050;2023-02-10T02:44:24;-2.70;93.50
13488;DHT22;6816;48.506;9.050;2023-02-10T02:47:27;-2.70;93.60
13488;DHT22;6816;48.506;9.050;2023-02-10T03:00:29;-2.80;93.70
13488;DHT22;6816;48.506;9.050;2023-02-10T03:03:32;-2.80;93.80
13488;DHT22;6816;48.506;9.050;2023-02-10T03:06:34;-2.90;93.80
13488;DHT22;6816;48.506;9.050;2023-02-10T03:09:34;-2.90;93.80
13488;DHT22;6816;48.506;9.050;2023-02-10T03:12:35;-2.90;93.80
13488;DHT22;6816;48.506;9.050;2023-02-10T03:15:36;-2.90;93.90
13488;DHT22;6816;48.506;9.050;2023-02-10T03:18:37;-2.90;94.00
13488;DHT22;6816;48.506;9.050;2023-02-10T03:21:37;-2.90;94.00
13488;DHT22;6816;48.506;9.050;2023-02-10T03:24:38;-2.90;94.00
13488;DHT22;6816;48.506;9.050;2023-02-10T03:27:38;-2.80;94.00
13488;DHT22;6816;48.506;9.050;2023-02-10T03:30:39;-3.00;94.00
13488;DHT22;6816;48.506;9.050;2023-02-10T03:33:48;-3.00;94.00
13488;DHT22;6816;48.506;9.050;2023-02-10T03:36:48;-3.00;94.00
13488;DHT22;6816;48.506;9.050;2023-02-10T03:39:49;-3.00;93.90
13488;DHT22;6816;48.506;9.050;2023-02-10T03:42:50;-2.90;93.90
13488;DHT22;6816;48.506;9.050;2023-02-10T03:45:50;-2.90;93.90
13488;DHT22;6816;48.506;9.050;2023-02-10T03:48:51;-2.90;93.90
13488;DHT22;6816;48.506;9.050;2023-02-10T03:51:51;-3.10;93.80
13488;DHT22;6816;48.506;9.050;2023-02-10T03:54:52;-3.10;93.80
13488;DHT22;6816;48.506;9.050;2023-02-10T03:57:53;-3.10;93.80
13488;DHT22;6816;48.506;9.050;2023-02-10T04:00:53;-3.20;93.80
13488;DHT22;6816;48.506;9.050;2023-02-10T04:03:54;-3.20;93.80
13488;DHT22;6816;48.506;9.050;2023-02-10T04:06:55;-3.10;93.80
13488;DHT22;6816;48.506;9.050;2023-02-10T04:09:55;-3.20;93.80
13488;DHT22;6816;48.506;9.050;2023-02-10T04:12:56;-3.20;93.80
13488;DHT22;6816;48.506;9.050;2023-02-10T04:16:08;-3.30;93.80
13488;DHT22;6816;48.506;9.050;2023-02-10T04:19:09;-3.30;93.90
13488;DHT22;6816;48.506;9.050;2023-02-10T04:22:10;-3.30;94.00
13488;DHT22;6816;48.506;9.050;2023-02-10T04:25:11;-3.30;94.00
13488;DHT22;6816;48.506;9.050;2023-02-10T04:28:11;-3.30;94.00
13488;DHT22;6816;48.506;9.050;2023-02-10T04:31:12;-3.20;94.00
13488;DHT22;6816;48.506;9.050;2023-02-10T04:34:12;-3.40;93.90
13488;DHT22;6816;48.506;9.050;2023-02-10T04:37:13;-3.40;93.90
13488;DHT22;6816;48.506;9.050;2023-02-10T04:40:14;-3.40;94.00
13488;DHT22;6816;48.506;9.050;2023-02-10T04:43:15;-3.40;94.00
13488;DHT22;6816;48.506;9.050;2023-02-10T04:46:15;-3.50;93.90
13488;DHT22;6816;48.506;9.050;2023-02-10T04:49:17;-3.50;93.90
13488;DHT22;6816;48.506;9.050;2023-02-10T04:52:17;-3.50;93.90
13488;DHT22;6816;48.506;9.050;2023-02-10T04:55:18;-3.50;93.80
13488;DHT22;6816;48.506;9.050;2023-02-10T04:58:19;-3.60;93.80
13488;DHT22;6816;48.506;9.050;2023-02-10T05:01:20;-3.60;93.70
13488;DHT22;6816;48.506;9.050;2023-02-10T05:04:21;-3.60;93.70
13488;DHT22;6816;48.506;9.050;2023-02-10T05:07:22;-3.70;93.60
13488;DHT22;6816;48.506;9.050;2023-02-10T05:10:23;-3.70;93.60
13488;DHT22;6816;48.506;9.050;2023-02-10T05:13:23;-3.70;93.50
13488;DHT22;6816;48.506;9.050;2023-02-10T05:16:24;-3.80;93.50
13488;DHT22;6816;48.506;9.050;2023-02-10T05:19:25;-3.80;93.60
13488;DHT22;6816;48.506;9.050;2023-02-10T05:22:25;-3.90;93.60
13488;DHT22;6816;48.506;9.050;2023-02-10T05:25:29;-3.90;93.60
13488;DHT22;6816;48.506;9.050;2023-02-10T05:28:30;-3.90;93.60
13488;DHT22;6816;48.506;9.050;2023-02-10T05:31:31;-4.00;93.60
13488;DHT22;6816;48.506;9.050;2023-02-10T05:34:31;-4.00;93.60
13488;DHT22;6816;48.506;9.050;2023-02-10T05:37:32;-4.00;93.60
13488;DHT22;6816;48.506;9.050;2023-02-10T05:40:33;-4.10;93.60
13488;DHT22;6816;48.506;9.050;2023-02-10T05:43:33;-4.10;93.60
13488;DHT22;6816;48.506;9.050;2023-02-10T05:46:34;-4.10;93.70
13488;DHT22;6816;48.506;9.050;2023-02-10T05:49:34;-4.20;93.60
13488;DHT22;6816;48.506;9.050;2023-02-10T05:52:35;-4.00;93.60
13488;DHT22;6816;48.506;9.050;2023-02-10T05:55:36;-4.20;93.50
13488;DHT22;6816;48.506;9.050;2023-02-10T05:58:37;-4.30;93.50
13488;DHT22;6816;48.506;9.050;2023-02-10T06:01:37;-4.30;93.60
13488;DHT22;6816;48.506;9.050;2023-02-10T06:04:38;-4.30;93.60
13488;DHT22;6816;48.506;9.050;2023-02-10T06:07:39;-4.40;93.60
13488;DHT22;6816;48.506;9.050;2023-02-10T06:10:39;-4.40;93.60
13488;DHT22;6816;48.506;9.050;2023-02-10T06:13:40;-4.40;93.60
13488;DHT22;6816;48.506;9.050;2023-02-10T06:16:42;-4.30;94.10
13488;DHT22;6816;48.506;9.050;2023-02-10T06:19:42;-4.50;93.60
13488;DHT22;6816;48.506;9.050;2023-02-10T06:22:43;-4.50;93.60
13488;DHT22;6816;48.506;9.050;2023-02-10T06:25:44;-4.50;93.70
13488;DHT22;6816;48.506;9.050;2023-02-10T06:28:44;-4.60;93.60
13488;DHT22;6816;48.506;9.050;2023-02-10T06:31:45;-4.60;93.60
13488;DHT22;6816;48.506;9.050;2023-02-10T06:34:46;-4.60;93.70
13488;DHT22;6816;48.506;9.050;2023-02-10T06:37:47;-4.60;93.70
13488;DHT22;6816;48.506;9.050;2023-02-10T06:40:48;-4.60;93.70
13488;DHT22;6816;48.506;9.050;2023-02-10T06:43:48;-4.60;93.70
13488;DHT22;6816;48.506;9.050;2023-02-10T06:46:49;-4.70;93.70
13488;DHT22;6816;48.506;9.050;2023-02-10T06:49:50;-4.70;93.70
13488;DHT22;6816;48.506;9.050;2023-02-10T06:52:50;-4.70;93.80
13488;DHT22;6816;48.506;9.050;2023-02-10T06:55:51;-4.70;93.80
13488;DHT22;6816;48.506;9.050;2023-02-10T06:58:51;-4.70;93.90
13488;DHT22;6816;48.506;9.050;2023-02-10T07:01:52;-4.70;93.90
13488;DHT22;6816;48.506;9.050;2023-02-10T07:04:53;-4.70;93.90
13488;DHT22;6816;48.506;9.050;2023-02-10T07:07:54;-4.70;93.90
13488;DHT22;6816;48.506;9.050;2023-02-10T07:10:56;-4.70;93.90
13488;DHT22;6816;48.506;9.050;2023-02-10T07:13:57;-4.70;94.00
13488;DHT22;6816;48.506;9.050;2023-02-10T07:16:58;-4.70;94.10
13488;DHT22;6816;48.506;9.050;2023-02-10T07:19:58;-4.70;94.10
13488;DHT22;6816;48.506;9.050;2023-02-10T07:22:59;-4.60;94.20
13488;DHT22;6816;48.506;9.050;2023-02-10T07:26:00;-4.60;94.30
13488;DHT22;6816;48.506;9.050;2023-02-10T07:29:01;-4.50;94.50
13488;DHT22;6816;48.506;9.050;2023-02-10T07:32:01;-4.60;94.50
13488;DHT22;6816;48.506;9.050;2023-02-10T07:35:02;-4.50;94.60
13488;DHT22;6816;48.506;9.050;2023-02-10T07:38:03;-4.50;94.80
13488;DHT22;6816;48.506;9.050;2023-02-10T07:41:05;-4.40;94.90
13488;DHT22;6816;48.506;9.050;2023-02-10T07:44:06;-4.30;95.00
13488;DHT22;6816;48.506;9.050;2023-02-10T07:47:09;-4.30;95.10
13488;DHT22;6816;48.506;9.050;2023-02-10T07:50:09;-4.10;95.30
13488;DHT22;6816;48.506;9.050;2023-02-10T07:53:10;-4.10;95.50
13488;DHT22;6816;48.506;9.050;2023-02-10T07:56:11;-4.00;95.60
13488;DHT22;6816;48.506;9.050;2023-02-10T07:59:11;-4.00;95.80
13488;DHT22;6816;48.506;9.050;2023-02-10T08:02:12;-3.80;96.10
13488;DHT22;6816;48.506;9.050;2023-02-10T08:05:13;-3.70;96.30
13488;DHT22;6816;48.506;9.050;2023-02-10T08:08:13;-3.60;96.50
13488;DHT22;6816;48.506;9.050;2023-02-10T08:11:15;-3.50;96.70
13488;DHT22;6816;48.506;9.050;2023-02-10T08:14:16;-3.40;96.80
13488;DHT22;6816;48.506;9.050;2023-02-10T08:17:16;-3.20;97.00
13488;DHT22;6816;48.506;9.050;2023-02-10T08:20:17;-3.00;97.20
13488;DHT22;6816;48.506;9.050;2023-02-10T08:23:18;-3.00;97.20
13488;DHT22;6816;48.506;9.050;2023-02-10T08:26:18;-2.90;97.30
13488;DHT22;6816;48.506;9.050;2023-02-10T08:29:19;-2.70;97.40
13488;DHT22;6816;48.506;9.050;2023-02-10T08:32:19;-2.60;97.50
13488;DHT22;6816;48.506;9.050;2023-02-10T08:35:20;-2.50;97.60
13488;DHT22;6816;48.506;9.050;2023-02-10T08:38:21;-2.40;97.60
13488;DHT22;6816;48.506;9.050;2023-02-10T08:41:21;-2.30;97.70
13488;DHT22;6816;48.506;9.050;2023-02-10T08:44:22;-2.20;97.80
13488;DHT22;6816;48.506;9.050;2023-02-10T08:47:25;-2.10;97.90
13488;DHT22;6816;48.506;9.050;2023-02-10T08:50:25;-2.00;97.90
13488;DHT22;6816;48.506;9.050;2023-02-10T08:53:26;-2.00;98.10
13488;DHT22;6816;48.506;9.050;2023-02-10T08:56:27;-1.90;98.10
13488;DHT22;6816;48.506;9.050;2023-02-10T08:59:28;-1.80;98.20
13488;DHT22;6816;48.506;9.050;2023-02-10T09:02:28;-1.70;98.40
13488;DHT22;6816;48.506;9.050;2023-02-10T09:05:29;-1.60;98.50
13488;DHT22;6816;48.506;9.050;2023-02-10T09:08:29;-1.50;98.50
13488;DHT22;6816;48.506;9.050;2023-02-10T09:11:30;-1.40;98.70
13488;DHT22;6816;48.506;9.050;2023-02-10T09:14:31;-1.30;98.80
13488;DHT22;6816;48.506;9.050;2023-02-10T09:17:32;-1.30;98.90
13488;DHT22;6816;48.506;9.050;2023-02-10T09:20:32;-1.20;99.10
13488;DHT22;6816;48.506;9.050;2023-02-10T09:23:33;-1.00;99.20
13488;DHT22;6816;48.506;9.050;2023-02-10T09:26:34;-1.00;99.30
13488;DHT22;6816;48.506;9.050;2023-02-10T09:29:35;-0.90;99.50
13488;DHT22;6816;48.506;9.050;2023-02-10T09:32:35;-0.70;99.70
13488;DHT22;6816;48.506;9.050;2023-02-10T09:35:36;-0.70;99.90
13488;DHT22;6816;48.506;9.050;2023-02-10T09:38:37;-0.60;99.90
13488;DHT22;6816;48.506;9.050;2023-02-10T09:42:22;-0.40;99.90
13488;DHT22;6816;48.506;9.050;2023-02-10T09:45:09;-0.30;99.90
13488;DHT22;6816;48.506;9.050;2023-02-10T09:48:20;-0.10;99.90
13488;DHT22;6816;48.506;9.050;2023-02-10T09:51:43;0.10;99.90
13488;DHT22;6816;48.506;9.050;2023-02-10T09:54:48;0.30;99.90
13488;DHT22;6816;48.506;9.050;2023-02-10T09:57:53;0.40;99.90
13488;DHT22;6816;48.506;9.050;2023-02-10T10:01:03;0.60;99.90
13488;DHT22;6816;48.506;9.050;2023-02-10T10:04:19;0.80;99.90
13488;DHT22;6816;48.506;9.050;2023-02-10T10:07:28;1.00;99.90
13488;DHT22;6816;48.506;9.050;2023-02-10T10:10:40;1.10;99.90
13488;DHT22;6816;48.506;9.050;2023-02-10T10:13:43;1.40;99.90
13488;DHT22;6816;48.506;9.050;2023-02-10T10:26:41;2.20;99.90
13488;DHT22;6816;48.506;9.050;2023-02-10T10:29:54;2.30;99.90
13488;DHT22;6816;48.506;9.050;2023-02-10T10:33:02;2.60;99.90
13488;DHT22;6816;48.506;9.050;2023-02-10T10:36:08;2.90;99.90
13488;DHT22;6816;48.506;9.050;2023-02-10T10:39:28;3.20;99.90
13488;DHT22;6816;48.506;9.050;2023-02-10T10:42:49;3.40;99.90
13488;DHT22;6816;48.506;9.050;2023-02-10T10:46:03;3.60;99.90
13488;DHT22;6816;48.506;9.050;2023-02-10T10:49:06;3.90;99.90
13488;DHT22;6816;48.506;9.050;2023-02-10T10:52:27;4.30;99.90
13488;DHT22;6816;48.506;9.050;2023-02-10T10:55:38;4.50;99.90
13488;DHT22;6816;48.506;9.050;2023-02-10T10:58:41;4.80;99.90
13488;DHT22;6816;48.506;9.050;2023-02-10T11:01:48;5.10;99.90
13488;DHT22;6816;48.506;9.050;2023-02-10T11:05:12;5.40;99.90
13488;DHT22;6816;48.506;9.050;2023-02-10T11:08:23;5.80;99.90
13488;DHT22;6816;48.506;9.050;2023-02-10T11:11:38;6.10;99.90
13488;DHT22;6816;48.506;9.050;2023-02-10T11:14:43;6.40;99.90
13488;DHT22;6816;48.506;9.050;2023-02-10T11:17:46;6.70;99.90
13488;DHT22;6816;48.506;9.050;2023-02-10T11:20:56;7.00;99.90
13488;DHT22;6816;48.506;9.050;2023-02-10T11:23:58;7.30;99.90
13488;DHT22;6816;48.506;9.050;2023-02-10T11:27:05;7.70;99.90
13488;DHT22;6816;48.506;9.050;2023-02-10T11:30:22;8.00;99.90
13488;DHT22;6816;48.506;9.050;2023-02-10T11:33:27;8.30;99.90
13488;DHT22;6816;48.506;9.050;2023-02-10T11:36:39;8.50;99.90
13488;DHT22;6816;48.506;9.050;2023-02-10T11:39:44;8.80;99.90
13488;DHT22;6816;48.506;9.050;2023-02-10T11:42:50;8.80;99.90
13488;DHT22;6816;48.506;9.050;2023-02-10T11:45:57;8.90;99.90
13488;DHT22;6816;48.506;9.050;2023-02-10T11:49:00;9.00;99.50
13488;DHT22;6816;48.506;9.050;2023-02-10T11:52:02;9.10;99.90
13488;DHT22;6816;48.506;9.050;2023-02-10T11:55:07;9.20;99.90
13488;DHT22;6816;48.506;9.050;2023-02-10T11:58:21;9.40;99.90
13488;DHT22;6816;48.506;9.050;2023-02-10T12:14:53;10.10;95.80
13488;DHT22;6816;48.506;9.050;2023-02-10T12:21:42;10.10;94.20
13488;DHT22;6816;48.506;9.050;2023-02-10T12:25:09;10.10;94.30
13488;DHT22;6816;48.506;9.050;2023-02-10T12:28:48;10.20;94.60
13488;DHT22;6816;48.506;9.050;2023-02-10T12:39:12;10.70;94.90
13488;DHT22;6816;48.506;9.050;2023-02-10T12:52:41;11.20;92.70
13488;DHT22;6816;48.506;9.050;2023-02-10T12:59:11;10.90;94.20
13488;DHT22;6816;48.506;9.050;2023-02-10T13:02:20;10.70;90.80
13488;DHT22;6816;48.506;9.050;2023-02-10T13:05:30;10.60;92.80
13488;DHT22;6816;48.506;9.050;2023-02-10T13:08:38;10.50;92.40
13488;DHT22;6816;48.506;9.050;2023-02-10T13:12:13;10.50;92.90
13488;DHT22;6816;48.506;9.050;2023-02-10T13:15:16;10.50;89.70
13488;DHT22;6816;48.506;9.050;2023-02-10T13:18:23;10.50;94.40
13488;DHT22;6816;48.506;9.050;2023-02-10T13:22:00;10.50;92.20
13488;DHT22;6816;48.506;9.050;2023-02-10T13:25:26;10.40;90.40
13488;DHT22;6816;48.506;9.050;2023-02-10T13:34:53;10.10;92.00
13488;DHT22;6816;48.506;9.050;2023-02-10T13:37:56;10.10;92.70
13488;DHT22;6816;48.506;9.050;2023-02-10T13:40:58;10.00;93.40
13488;DHT22;6816;48.506;9.050;2023-02-10T13:44:27;10.10;93.90
13488;DHT22;6816;48.506;9.050;2023-02-10T13:47:37;10.00;92.80
13488;DHT22;6816;48.506;9.050;2023-02-10T13:50:49;10.00;92.00
13488;DHT22;6816;48.506;9.050;2023-02-10T13:53:52;9.80;92.00
13488;DHT22;6816;48.506;9.050;2023-02-10T13:56:55;9.70;93.10
13488;DHT22;6816;48.506;9.050;2023-02-10T14:00:17;9.60;92.70
13488;DHT22;6816;48.506;9.050;2023-02-10T14:03:32;9.50;89.80
13488;DHT22;6816;48.506;9.050;2023-02-10T14:06:37;9.40;90.90
13488;DHT22;6816;48.506;9.050;2023-02-10T14:09:38;9.40;92.40
13488;DHT22;6816;48.506;9.050;2023-02-10T14:12:39;9.20;93.20
13488;DHT22;6816;48.506;9.050;2023-02-10T14:15:41;9.20;93.00
13488;DHT22;6816;48.506;9.050;2023-02-10T14:18:45;9.10;92.90
13488;DHT22;6816;48.506;9.050;2023-02-10T14:21:58;9.00;91.90
13488;DHT22;6816;48.506;9.050;2023-02-10T14:25:16;8.90;92.60
13488;DHT22;6816;48.506;9.050;2023-02-10T14:28:50;8.80;90.20
13488;DHT22;6816;48.506;9.050;2023-02-10T14:31:57;8.80;88.50
13488;DHT22;6816;48.506;9.050;2023-02-10T14:35:04;8.60;92.10
13488;DHT22;6816;48.506;9.050;2023-02-10T14:38:19;8.50;91.60
13488;DHT22;6816;48.506;9.050;2023-02-10T14:41:21;8.40;90.40
13488;DHT22;6816;48.506;9.050;2023-02-10T14:44:39;8.40;92.60
13488;DHT22;6816;48.506;9.050;2023-02-10T14:47:43;8.30;91.30
13488;DHT22;6816;48.506;9.050;2023-02-10T14:50:59;8.30;92.00
13488;DHT22;6816;48.506;9.050;2023-02-10T14:54:23;8.20;90.90
13488;DHT22;6816;48.506;9.050;2023-02-10T14:57:25;8.10;90.40
13488;DHT22;6816;48.506;9.050;2023-02-10T15:00:26;8.10;92.80
13488;DHT22;6816;48.506;9.050;2023-02-10T15:03:27;8.10;93.00
13488;DHT22;6816;48.506;9.050;2023-02-10T15:06:29;8.00;93.00
13488;DHT22;6816;48.506;9.050;2023-02-10T15:09:33;8.00;92.60
13488;DHT22;6816;48.506;9.050;2023-02-10T15:12:34;7.90;92.30
13488;DHT22;6816;48.506;9.050;2023-02-10T15:15:39;8.00;93.10
13488;DHT22;6816;48.506;9.050;2023-02-10T15:18:45;7.90;92.20
13488;DHT22;6816;48.506;9.050;2023-02-10T15:21:47;7.80;92.20
13488;DHT22;6816;48.506;9.050;2023-02-10T15:24:49;7.80;93.10
13488;DHT22;6816;48.506;9.050;2023-02-10T15:27:50;7.80;93.20
13488;DHT22;6816;48.506;9.050;2023-02-10T15:31:18;7.80;93.20
13488;DHT22;6816;48.506;9.050;2023-02-10T15:37:25;7.70;92.60
13488;DHT22;6816;48.506;9.050;2023-02-10T15:40:32;7.70;92.90
13488;DHT22;6816;48.506;9.050;2023-02-10T15:43:33;7.60;93.10
13488;DHT22;6816;48.506;9.050;2023-02-10T15:46:35;7.60;92.90
13488;DHT22;6816;48.506;9.050;2023-02-10T15:49:36;7.50;92.90
13488;DHT22;6816;48.506;9.050;2023-02-10T15:52:45;7.50;93.00
13488;DHT22;6816;48.506;9.050;2023-02-10T15:55:47;7.40;91.50
13488;DHT22;6816;48.506;9.050;2023-02-10T15:58:48;7.30;92.80
13488;DHT22;6816;48.506;9.050;2023-02-10T16:01:48;7.30;93.00
13488;DHT22;6816;48.506;9.050;2023-02-10T16:04:49;7.30;92.80
13488;DHT22;6816;48.506;9.050;2023-02-10T16:07:50;7.10;92.60
13488;DHT22;6816;48.506;9.050;2023-02-10T16:10:51;7.00;92.60
13488;DHT22;6816;48.506;9.050;2023-02-10T16:13:52;7.00;92.80
13488;DHT22;6816;48.506;9.050;2023-02-10T16:16:55;6.90;92.90
13488;DHT22;6816;48.506;9.050;2023-02-10T16:19:57;6.80;92.40
13488;DHT22;6816;48.506;9.050;2023-02-10T16:22:58;6.70;92.90
13488;DHT22;6816;48.506;9.050;2023-02-10T16:25:58;6.60;92.90
13488;DHT22;6816;48.506;9.050;2023-02-10T16:28:59;6.50;93.00
13488;DHT22;6816;48.506;9.050;2023-02-10T16:32:00;6.50;93.40
13488;DHT22;6816;48.506;9.050;2023-02-10T16:35:00;6.50;93.00
13488;DHT22;6816;48.506;9.050;2023-02-10T16:38:01;6.20;93.10
13488;DHT22;6816;48.506;9.050;2023-02-10T16:41:02;6.20;92.90
13488;DHT22;6816;48.506;9.050;2023-02-10T16:44:03;6.00;92.80
13488;DHT22;6816;48.506;9.050;2023-02-10T16:47:03;5.90;92.80
13488;DHT22;6816;48.506;9.050;2023-02-10T16:50:04;5.80;92.80
13488;DHT22;6816;48.506;9.050;2023-02-10T16:53:06;5.70;92.80
13488;DHT22;6816;48.506;9.050;2023-02-10T16:56:14;5.50;92.80
13488;DHT22;6816;48.506;9.050;2023-02-10T16:59:17;5.40;92.30
13488;DHT22;6816;48.506;9.050;2023-02-10T17:02:18;5.30;92.70
13488;DHT22;6816;48.506;9.050;2023-02-10T17:05:19;5.10;93.00
13488;DHT22;6816;48.506;9.050;2023-02-10T17:08:20;5.00;93.00
13488;DHT22;6816;48.506;9.050;2023-02-10T17:11:21;4.90;93.10
13488;DHT22;6816;48.506;9.050;2023-02-10T17:14:21;4.90;93.20
13488;DHT22;6816;48.506;9.050;2023-02-10T17:17:22;4.70;93.30
13488;DHT22;6816;48.506;9.050;2023-02-10T17:20:26;4.60;93.30
13488;DHT22;6816;48.506;9.050;2023-02-10T17:23:27;4.60;93.10
13488;DHT22;6816;48.506;9.050;2023-02-10T17:26:27;4.40;93.40
13488;DHT22;6816;48.506;9.050;2023-02-10T17:29:28;4.30;93.30
13488;DHT22;6816;48.506;9.050;2023-02-10T17:32:28;4.20;93.40
13488;DHT22;6816;48.506;9.050;2023-02-10T17:35:29;4.10;93.40
13488;DHT22;6816;48.506;9.050;2023-02-10T17:38:30;4.00;93.40
13488;DHT22;6816;48.506;9.050;2023-02-10T17:41:45;4.00;93.60
13488;DHT22;6816;48.506;9.050;2023-02-10T17:44:46;3.90;93.60
13488;DHT22;6816;48.506;9.050;2023-02-10T17:47:47;3.80;93.60
13488;DHT22;6816;48.506;9.050;2023-02-10T17:50:47;3.70;93.60
13488;DHT22;6816;48.506;9.050;2023-02-10T17:53:49;3.80;93.80
13488;DHT22;6816;48.506;9.050;2023-02-10T17:56:50;3.60;93.80
13488;DHT22;6816;48.506;9.050;2023-02-10T17:59:51;3.50;93.90
13488;DHT22;6816;48.506;9.050;2023-02-10T18:02:51;3.40;93.90
13488;DHT22;6816;48.506;9.050;2023-02-10T18:05:53;3.50;93.90
13488;DHT22;6816;48.506;9.050;2023-02-10T18:08:55;3.20;93.70
13488;DHT22;6816;48.506;9.050;2023-02-10T18:11:57;3.20;93.80
13488;DHT22;6816;48.506;9.050;2023-02-10T18:14:59;3.10;94.00
13488;DHT22;6816;48.506;9.050;2023-02-10T18:17:59;3.00;94.00
13488;DHT22;6816;48.506;9.050;2023-02-10T18:21:00;3.00;94.20
13488;DHT22;6816;48.506;9.050;2023-02-10T18:24:01;2.80;94.20
13488;DHT22;6816;48.506;9.050;2023-02-10T18:27:01;2.80;94.30
13488;DHT22;6816;48.506;9.050;2023-02-10T18:30:02;2.70;94.30
13488;DHT22;6816;48.506;9.050;2023-02-10T18:33:05;2.70;94.40
13488;DHT22;6816;48.506;9.050;2023-02-10T18:36:10;2.60;94.50
13488;DHT22;6816;48.506;9.050;2023-02-10T18:39:13;2.60;94.50
13488;DHT22;6816;48.506;9.050;2023-02-10T18:42:13;2.50;94.70
13488;DHT22;6816;48.506;9.050;2023-02-10T18:45:14;2.50;94.60
13488;DHT22;6816;48.506;9.050;2023-02-10T18:48:15;2.50;94.70
13488;DHT22;6816;48.506;9.050;2023-02-10T18:51:16;2.40;94.60
13488;DHT22;6816;48.506;9.050;2023-02-10T18:54:17;2.40;94.70
13488;DHT22;6816;48.506;9.050;2023-02-10T18:57:17;2.30;94.60
13488;DHT22;6816;48.506;9.050;2023-02-10T19:00:18;2.30;94.60
13488;DHT22;6816;48.506;9.050;2023-02-10T19:03:19;2.20;94.60
13488;DHT22;6816;48.506;9.050;2023-02-10T19:06:20;2.20;94.70
13488;DHT22;6816;48.506;9.050;2023-02-10T19:09:21;2.20;94.70
13488;DHT22;6816;48.506;9.050;2023-02-10T19:12:21;2.10;94.70
13488;DHT22;6816;48.506;9.050;2023-02-10T19:15:22;2.00;94.70
13488;DHT22;6816;48.506;9.050;2023-02-10T19:18:23;2.00;94.80
13488;DHT22;6816;48.506;9.050;2023-02-10T19:21:23;2.00;94.80
13488;DHT22;6816;48.506;9.050;2023-02-10T19:24:24;1.90;94.90
13488;DHT22;6816;48.506;9.050;2023-02-10T19:27:25;1.90;95.30
13488;DHT22;6816;48.506;9.050;2023-02-10T19:30:25;1.80;94.90
13488;DHT22;6816;48.506;9.050;2023-02-10T19:33:26;1.90;95.00
13488;DHT22;6816;48.506;9.050;2023-02-10T19:36:27;1.70;94.90
13488;DHT22;6816;48.506;9.050;2023-02-10T19:39:27;1.70;95.00
13488;DHT22;6816;48.506;9.050;2023-02-10T19:42:28;1.70;95.10
13488;DHT22;6816;48.506;9.050;2023-02-10T19:45:29;1.60;95.10
13488;DHT22;6816;48.506;9.050;2023-02-10T19:48:29;1.60;95.20
13488;DHT22;6816;48.506;9.050;2023-02-10T19:51:32;1.60;95.20
13488;DHT22;6816;48.506;9.050;2023-02-10T19:54:33;1.60;95.20
13488;DHT22;6816;48.506;9.050;2023-02-10T19:57:33;1.50;95.10
13488;DHT22;6816;48.506;9.050;2023-02-10T20:00:34;1.50;95.20
13488;DHT22;6816;48.506;9.050;2023-02-10T20:03:35;1.40;95.20
13488;DHT22;6816;48.506;9.050;2023-02-10T20:06:40;1.40;95.20
13488;DHT22;6816;48.506;9.050;2023-02-10T20:09:40;1.40;95.00
13488;DHT22;6816;48.506;9.050;2023-02-10T20:12:41;1.30;95.10
13488;DHT22;6816;48.506;9.050;2023-02-10T20:15:42;1.30;95.20
13488;DHT22;6816;48.506;9.050;2023-02-10T20:18:43;1.20;95.10
13488;DHT22;6816;48.506;9.050;2023-02-10T20:21:44;1.20;95.20
13488;DHT22;6816;48.506;9.050;2023-02-10T20:24:45;1.10;95.20
13488;DHT22;6816;48.506;9.050;2023-02-10T20:27:45;1.10;95.20
13488;DHT22;6816;48.506;9.050;2023-02-10T20:30:46;1.10;95.20
13488;DHT22;6816;48.506;9.050;2023-02-10T20:33:47;1.00;95.20
13488;DHT22;6816;48.506;9.050;2023-02-10T20:36:48;1.00;95.30
13488;DHT22;6816;48.506;9.050;2023-02-10T20:39:48;1.00;95.30
13488;DHT22;6816;48.506;9.050;2023-02-10T20:42:49;1.00;95.30
13488;DHT22;6816;48.506;9.050;2023-02-10T20:45:51;0.90;95.30
13488;DHT22;6816;48.506;9.050;2023-02-10T20:48:52;0.90;95.70
13488;DHT22;6816;48.506;9.050;2023-02-10T20:51:53;0.80;95.60
13488;DHT22;6816;48.506;9.050;2023-02-10T20:54:53;0.80;95.90
13488;DHT22;6816;48.506;9.050;2023-02-10T20:57:54;0.80;96.00
13488;DHT22;6816;48.506;9.050;2023-02-10T21:00:59;0.80;96.00
13488;DHT22;6816;48.506;9.050;2023-02-10T21:04:00;0.80;95.90
13488;DHT22;6816;48.506;9.050;2023-02-10T21:07:01;0.80;96.10
13488;DHT22;6816;48.506;9.050;2023-02-10T21:10:02;0.80;96.10
13488;DHT22;6816;48.506;9.050;2023-02-10T21:13:03;0.80;96.00
13488;DHT22;6816;48.506;9.050;2023-02-10T21:16:04;0.80;96.00